< < Back
Terminal Aerodrome Forecast


Current Version              Previous Versions:   1  2  3  4  5  6  7  8  9  

Terminal Aerodrome Forecast

004
FTUS42 KILM 170800 AAA
TAFILM
TAF AMD
KILM 170801Z 1708/1806 31007KT P6SM SKC
     FM172330 00000KT P6SM SCT250=

Latest METAR

642
SAUS70 KWBC 181000 RRA
MTRILM
METAR KILM 180953Z 02003KT 10SM CLR 03/03 A3010 RMK AO2 SLP192
T00280028


USA.gov is the U.S. government's official web portal to all federal, state and local government web resources and services.